Winnerscup USA - inventory / chip check

Station: hand scan - T Race

Distance: 1 Miles

Release: 30-Sep-2017 08:00

Weather Release:    Arrival:

Wind at Release:     Wind at Arrival:

Temp at Release: °    Temp at Arrival: °

Lofts: 54

Birds: 342

Clocked: 321

Good Luck to Everyone!
Drops Pos Breeder Pigeon Name Color Sex Ent Arrival Speed To Win Eligible ABC
1 Racing Pigeon Mall - WA 0725-AU17-RPM Rizer BC C 1 08:39:08.00 44.974 00:00:00 Yes
2 Racing Pigeon Mall - WA 0714-AU17-RPM Main Asset BB C 2 08:58:51.00 29.907 00:19:43 Yes
3 New Era Loft - PA 11611-AU17-ARPU Silhouette BCP H 1 08:59:44.00 29.464 00:20:36 Yes
4 G & L Loft - OR 2394-AU17-WPC Affirmation BB C 1 09:00:36.00 29.043 00:21:28 Yes
5 Bieche-Stevenson - CA 7477-AU17-BIEC Second Opinion BB C 1 09:01:24.00 28.664 00:22:16 Yes
6 Sexton's Loft - IA 31788-AU17-AA Under Achiever BC H 1 09:02:00.00 28.387 00:22:52 Yes
7 Daehn/Miele - FL 3835-AU17-FOYS Chanel 35 BBWF H 1 09:02:56.00 27.966 00:23:48 Yes
8 Jimmy Zheng Loft - MS 0699-AU17-ZHNG Super Crack Again BB H 1 09:05:32.00 26.857 00:26:24 Yes
9 Sexton's Loft - IA 31786-AU17-AA Dialed 4 Dollars WHGZ C 2 09:06:00.00 26.667 00:26:52 Yes
10 Hi-Cal Connection - CA 0785-AU17-HCAL Under Seige PEN C 1 09:06:33.00 26.446 00:27:25 Yes
11 Dream Team - VT 0421-AU17-JCZL National One BC C 1 09:07:11.00 26.197 00:28:03 Yes
12 Canto & Wiltz - MA 10977-AU17-AA Tanker BB C 1 09:07:47.00 25.965 00:28:39 Hold
13 Sheila Gabler - IL 0213-AU17-ADL Rockette CWF H 1 09:08:17.00 25.775 00:29:09 Yes
14 Dal-Tex R P C - TX 0444-AU17-DLLS Gray Eagle GR C 1 09:08:48.00 25.581 00:29:40 Yes
15 Jack's Loft - CA 36711-AU17-ARPU Alamaar RGRZ H 1 09:09:15.00 25.415 00:30:07 Yes
16 Sexton's Loft - IA 31766-AU17-AA Adverse Condition BB C 3 09:09:46.00 25.227 00:30:38 Yes
17 Nesler Boyz - CA 1796-AU17-TCH Front Runner BWFP C 1 09:11:02.00 24.777 00:31:54 Yes
18 Sexton's Loft - IA 31763-AU17-AA New Apollo BC C 4 09:11:37.00 24.575 00:32:29 Yes
19 Nesneb Racing Loft - AL 17142-AU17-MOB Cash Master BC H 1 09:12:09.00 24.394 00:33:01 Yes
20 Ken Easley-Silvercreek - NM 5162-AU17-ESLY Aleksi BB C 1 09:12:40.00 24.220 00:33:32 Hold
21 Nesneb Racing Loft - AL 17141-AU17-MOB In The Money BB H 2 09:13:29.00 23.951 00:34:21 Yes
22 Jimmy Zheng Loft - MS 0630-AU17-ZHNG Lariats Fire BBWF C 2 09:13:58.00 23.795 00:34:50 Yes
23 Daehn/Miele - FL 3832-AU17-FOYS Redefined Exit BC C 2 09:14:24.00 23.656 00:35:16 Yes
24 Walstons Warriors - NC 7407-AU17-GL Geronimo BB C 1 09:14:53.00 23.503 00:35:45 Yes
25 Crescendo Loft - NM 18432-AU17-AA Omega BB C 1 09:16:31.00 23.002 00:37:23 Yes
26 Nesneb Racing Loft - AL 17148-AU17-MOB Auto Mode BCW C 3 09:17:06.00 22.827 00:37:58 Yes
27 Bieche-Stevenson - CA 7494-AU17-BIEC Carmela BC H 2 09:17:47.00 22.627 00:38:39 Yes
28 Champ Camp - IN 0281-AU17-CHMP Decent Exposure BWFP H 1 09:18:18.00 22.478 00:39:10 Yes
29 Daehn/Miele - FL 3838-AU17-FOYS Bamboozled BB H 3 09:18:44.00 22.354 00:39:36 Yes
30 Red Ass Ranch - TX 0149-AU17-RAR Blue Diva BB H 1 09:19:22.00 22.176 00:40:14 Yes
31 Dream Team - VT 0707-AU17-JCZL Tower of Power BC H 2 09:19:44.00 22.074 00:40:36 Yes
32 Ganus Family Loft - IN 0296-AU17-GFL Draft Me Now BC C 1 09:20:09.00 21.959 00:41:01 Yes
33 Spirit In The Sky - IL 0373-AU17-LCC GOLOTA BB C 1 09:20:39.00 21.823 00:41:31 Yes
34 Sexton's Loft - IA 31777-AU17-AA Possible Witness BC C 5 09:21:06.00 21.702 00:41:58 Yes
35 - 8162-AU17-TRPC 1 09:24:40.00 20.787 00:45:32
36 Red Ass Ranch - TX 0156-AU17-RAR Fix me Now BB H 2 09:25:17.00 20.637 00:46:09 Yes
37 Huan Qiu Zhang - NC 1711-AU17-JNC Bit Chain BCW C 1 09:25:49.00 20.509 00:46:41 Hold
38 Jimmy Zheng Loft - MS 0680-AU17-ZHNG Emperors Deciple BC C 3 09:26:25.00 20.366 00:47:17 Yes
39 Daehn/Miele - FL 3840-AU17-FOYS Steady Freddie BB C 4 09:26:48.00 20.276 00:47:40 Yes
40 Walstons Warriors - NC 7405-AU17-GL Catherine The Great BB H 2 09:27:18.00 20.160 00:48:10 Yes
41 Bolgar Loft - CA 15841-AU17-FOYS Darejani SLAT H 1 09:28:12.00 19.955 00:49:04 Yes
42 El Dorado Loft - TX 0181-AU17-TXAS As Good As it Getz BCWP H 1 09:29:11.00 19.735 00:50:03 Yes
43 Sofija Loft - IL 0011-AU17-BEKO Ludacris BBPD C 1 09:35:30.00 18.429 00:56:22 Yes
44 New Era Loft - PA 11605-AU17-ARPU Boullione SIL H 2 09:35:58.00 18.340 00:56:50 Yes
- 7650-IF17-FST 09:36:30.00 18.238
45 A D L Loft - IL 0193-AU17-ADL One Nation BB C 1 09:36:56.00 18.157 00:57:48 Yes
46 Valhalla Loft - CA 0492-AU17-WSJ REIMAR BB C 1 09:37:28.00 18.057 00:58:20 Yes
47 Sexton's Loft - IA 31784-AU17-AA It May Work BB H 6 09:38:02.00 17.953 00:58:54 Yes
48 Sarrett Racing Pigeons - TX 7024-AU17-PPH Similator BB C 1 09:38:34.00 17.856 00:59:26 Yes
49 Johnny's Automotive - CA 32920-AU17-JEDD Deliverance BB C 1 09:39:01.00 17.775 00:59:53 Yes
50 Dream Team - VT 0832-AU17-JCZL War Eagle BWFP C 3 09:40:31.00 17.510 01:01:23 Yes
51 Sexton's Loft - IA 31772-AU17-AA Airflow Research BC C 7 09:40:59.00 17.429 01:01:51 Yes
52 Sheila Gabler - IL 0225-AU17-ADL Outlaw Josey Wells BCW C 2 09:41:22.00 17.363 01:02:14 Yes
53 Sarrett Racing Pigeons - TX 7026-AU17-PPH Amarillo Queen BC H 2 09:41:50.00 17.283 01:02:42 Yes
54 Sienna Loft - NC 36771-AU17-AA Good Night BB C 1 09:42:15.00 17.213 01:03:07 Yes
55 P/R Loft - CA 0282-AU17-GSF Mezmerise BB H 1 09:42:40.00 17.143 01:03:32 Yes
56 A B C Loft2 - NY 59750-AU17-ARPU BamBoo BB C 1 09:43:13.00 17.052 01:04:05 Yes
57 A P C Loft - TX 17377-AU17-APC Tantric Sleeper SMOK H 1 09:43:44.00 16.967 01:04:36 Yes
58 Sexton's Loft - IA 31770-AU17-AA PotaGold BB C 8 09:44:10.00 16.896 01:05:02 Yes
59 Nesler Boyz - CA 1800-AU17-TCH Destined Choice BCW C 2 09:44:41.00 16.813 01:05:33 Yes
60 Hollywood Lou Loft - FL 0074-AU17-LOU Imposter BWFP C 1 09:45:03.00 16.754 01:05:55 Yes
61 Nesneb Racing Loft - AL 17149-AU17-MOB Considered Bank BB C 4 09:45:56.00 16.614 01:06:48 Yes
62 Sexton's Loft - IA 31790-AU17-AA Instant Pleasure BC H 9 09:46:22.00 16.547 01:07:14 Yes
63 B E T Loft - LA 22500-AU17-AA Hollywood's Top Star BB C 1 09:46:44.00 16.490 01:07:36 Yes
64 Ganus Family Loft - IN 0955-AU17-GFL Spritz BC C 2 09:49:38.00 16.054 01:10:30 Yes
65 Dal-Tex R P C - TX 0449-AU17-DLLS Fair Enough BC C 2 09:49:58.00 16.005 01:10:50 Yes
66 Tar Syndicate - PA 7974-AU17-TAR Cloud 74 VELV C 1 09:50:23.00 15.944 01:11:15 Yes
67 A P C Loft - TX 17367-AU17-APC Ransome BB H 2 09:50:52.00 15.875 01:11:44 Yes
68 Jack's Loft - CA 4393-AU17-FOYS Today's Hero SIL C 2 09:51:26.00 15.794 01:12:18 Yes
69 Racing Pigeon Mall - WA 0712-AU17-RPM Third Down Charley BC C 3 09:51:53.00 15.731 01:12:45 Yes
70 Johnny's Automotive - CA 32891-AU17-JEDD Remember August BC H 2 09:54:17.00 15.400 01:15:09 Yes
71 New Era Loft - PA 11625-AU17-ARPU Let It Be Told RC C 3 09:54:45.00 15.338 01:15:37 Yes
72 Hollywood Lou Loft - FL 0067-AU17-LOU Key Witness SMBB C 2 09:55:12.00 15.278 01:16:04 Yes
73 A P C Loft - TX 17369-AU17-APC Let It Be Known BC C 3 09:55:33.00 15.232 01:16:25 Yes
74 1-Tonyloft - VA 0633-AU17-ZHNG Emperors Diva BC H 1 09:55:56.00 15.181 01:16:48 Yes
75 Crescendo Loft - NM 18441-AU17-AA Horizon Echo BB C 2 09:56:19.00 15.131 01:17:11 Yes
76 Acre Farms - CA 0348-AU17-GENE Paid to Show SLAT C 1 09:56:51.00 15.062 01:17:43 Yes
77 A B C Loft2 - NY 11771-AU17-ARPU Etherium BB C 2 09:57:16.00 15.009 01:18:08 Yes
- 7641-IF17-FST 09:57:39.00 14.960
78 Dal-Tex R P C - TX 0448-AU17-DLLS Esmeralda BC H 3 09:58:00.00 14.915 01:18:52 Yes
79 Nesler Boyz - CA 1798-AU17-TCH Fever Pitch RCPD H 3 09:58:41.00 14.829 01:19:33 Yes
80 Sienna Loft - NC 37801-AU17-AA Betty Boop SMOK H 2 09:59:09.00 14.771 01:20:01 Yes
81 Hi-Cal Connection - CA 0782-AU17-HCAL Sea Bee BB C 2 09:59:33.00 14.722 01:20:25 Yes
82 Nesneb Racing Loft - AL 17146-AU17-MOB Done That BBWF C 5 10:10:44.00 13.463 01:31:36 Yes
83 Ojibwe Loft - OK 0015-AU17-OJIB War Hawk BB C 1 10:11:08.00 13.421 01:32:00 Yes
84 Champ Camp - IN 0265-AU17-CHMP Hell Fire BWFP C 2 10:11:33.00 13.379 01:32:25 Yes
85 New Era Loft - PA 11612-AU17-ARPU Last Assignment BCWP H 4 10:14:58.00 13.040 01:35:50 Yes
86 Sienna Loft - NC 37802-AU17-AA Admiral Halsey BB C 3 10:15:21.00 13.003 01:36:13 Yes
87 G & L Loft - OR 2392-AU17-WPC American Standard BWFP C 2 10:15:52.00 12.954 01:36:44 Yes
88 Hollywood Lou Loft - FL 0062-AU17-LOU Midnite Lace BB H 3 10:16:47.00 12.867 01:37:39 Yes
89 Nesler Boyz - CA 1764-AU17-TCH Tag Me Sold BB H 4 10:17:19.00 12.817 01:38:11 Yes
90 A D L Loft - IL 0188-AU17-ADL Patriot BB C 2 10:17:40.00 12.785 01:38:32 Yes
91 Nesler Boyz - CA 1797-AU17-TCH Done It All BC H 5 10:18:11.00 12.737 01:39:03 Yes
92 Canto & Wiltz - MA 10985-AU17-AA Dream City BB C 2 10:18:33.00 12.703 01:39:25 Hold
93 A P C Loft - TX 17296-AU17-APC No Doubt GR C 4 10:19:37.00 12.606 01:40:29 Yes
94 Crescendo Loft - NM 18437-AU17-AA ATILLA BB C 3 10:20:47.00 12.501 01:41:39 Yes
95 Daehn/Miele - FL 3839-AU17-FOYS Melany BB H 5 10:21:35.00 12.431 01:42:27 Yes
96 Larry Lewis - OK 8161-AU17-TRPC Vixen GP H 2 10:21:56.00 12.400 01:42:48 Yes
97 Valhalla Loft - CA 0482-AU17-WSJ COBALT BB C 2 10:22:20.00 12.365 01:43:12 Yes
98 Larry Lewis - OK 8146-AU17-TRPC No Exemption BC C 3 10:22:52.00 12.319 01:43:44 Yes

There are 312 bird records

Note: These Race Results are unofficial and subject to change until verified by the Race Committee and declared final.